Time;durP1;ratioP1;P1;durP2;ratioP2;P2;SDS_P1;SDS_P2;PMS_P1;PMS_P2;Temp;Humidity;BMP_temperature;BMP_pressure;BME280_temperature;BME280_humidity;BME280_pressure;Samples;Min_cycle;Max_cycle;Signal;HPM_P1;HPM_P2
2021/11/09 00:01:21;;;;;;;5.70;1.98;;;24.20;39.70;;;;;;5074449;28;20044;-41
2021/11/09 00:03:51;;;;;;;4.90;1.83;;;24.00;40.10;;;;;;5078893;28;20040;-44
2021/11/09 00:06:24;;;;;;;10.35;3.00;;;23.80;40.40;;;;;;5077045;28;20056;-41
2021/11/09 00:08:56;;;;;;;7.15;2.08;;;23.60;40.70;;;;;;5079146;28;20040;-41
2021/11/09 00:11:24;;;;;;;6.05;1.15;;;23.40;41.00;;;;;;5081144;28;20076;-41
2021/11/09 00:13:51;;;;;;;5.28;2.50;;;23.30;41.30;;;;;;5076370;28;20833;-41
2021/11/09 00:16:20;;;;;;;4.00;1.83;;;23.10;41.60;;;;;;5079494;28;20040;-41
2021/11/09 00:18:48;;;;;;;6.50;2.60;;;23.00;41.80;;;;;;5075690;28;20141;-41
2021/11/09 00:21:16;;;;;;;5.65;1.40;;;22.80;42.00;;;;;;5078727;28;20523;-41
2021/11/09 00:23:44;;;;;;;5.32;1.23;;;22.70;42.30;;;;;;5083653;28;20101;-40
2021/11/09 00:26:11;;;;;;;5.35;1.13;;;22.60;42.60;;;;;;5076630;28;20403;-40
2021/11/09 00:28:38;;;;;;;3.75;1.90;;;22.40;42.80;;;;;;5075385;28;20044;-40
2021/11/09 00:31:05;;;;;;;3.78;1.30;;;22.30;43.00;;;;;;5074851;28;20425;-40
2021/11/09 00:33:34;;;;;;;6.07;1.70;;;22.20;43.20;;;;;;5080835;28;20048;-39
2021/11/09 00:36:01;;;;;;;3.90;2.53;;;22.10;43.40;;;;;;5075643;28;20040;-40
2021/11/09 00:38:28;;;;;;;8.10;2.30;;;22.10;43.60;;;;;;5081284;28;20036;-40
2021/11/09 00:40:56;;;;;;;3.33;1.20;;;21.90;43.80;;;;;;5074122;28;20567;-39
2021/11/09 00:43:23;;;;;;;4.78;1.83;;;21.80;43.90;;;;;;5078288;28;20062;-39
2021/11/09 00:45:51;;;;;;;6.65;2.35;;;21.80;44.20;;;;;;5080504;28;20142;-39
2021/11/09 00:48:18;;;;;;;4.57;1.80;;;21.70;44.30;;;;;;5078074;28;20036;-39
2021/11/09 00:50:49;;;;;;;6.13;1.15;;;21.60;44.50;;;;;;5077226;28;20032;-39
2021/11/09 00:53:18;;;;;;;6.15;1.73;;;21.50;44.70;;;;;;5080576;28;20531;-39
2021/11/09 00:55:47;;;;;;;4.90;2.15;;;21.40;44.80;;;;;;5076913;28;20063;-39
2021/11/09 00:58:14;;;;;;;5.85;1.88;;;21.40;45.00;;;;;;5073589;28;20037;-40
2021/11/09 01:00:43;;;;;;;6.93;2.03;;;21.30;45.20;;;;;;5075720;28;20036;-39
2021/11/09 01:03:11;;;;;;;5.03;1.38;;;21.20;45.40;;;;;;5078670;28;20048;-39
2021/11/09 01:05:39;;;;;;;6.03;1.58;;;21.20;45.20;;;;;;5081288;28;20085;-42
2021/11/09 01:08:10;;;;;;;2.78;1.05;;;21.10;45.70;;;;;;5068778;28;20040;-39
2021/11/09 01:10:44;;;;;;;2.35;1.83;;;21.10;45.90;;;;;;5075786;28;20558;-39
2021/11/09 01:13:13;;;;;;;4.72;1.80;;;21.00;46.00;;;;;;5063501;28;20087;-41
2021/11/09 01:15:48;;;;;;;5.22;2.20;;;20.90;46.10;;;;;;5065752;28;20042;-41
2021/11/09 01:18:16;;;;;;;4.90;1.52;;;20.90;46.20;;;;;;5068219;28;20067;-41
2021/11/09 01:20:44;;;;;;;4.60;1.73;;;20.80;46.20;;;;;;5082368;28;20040;-41
2021/11/09 01:23:12;;;;;;;6.18;1.63;;;20.80;46.40;;;;;;5072698;28;20112;-40
2021/11/09 01:25:40;;;;;;;2.55;1.23;;;20.80;46.50;;;;;;5080935;28;20568;-40
2021/11/09 01:28:08;;;;;;;3.25;1.40;;;20.70;46.60;;;;;;5074091;28;20058;-41
2021/11/09 01:30:36;;;;;;;9.65;2.38;;;20.70;46.70;;;;;;5077697;28;20040;-41
2021/11/09 01:33:04;;;;;;;3.67;1.02;;;20.70;46.80;;;;;;5077279;28;20048;-41
2021/11/09 01:35:31;;;;;;;4.53;1.40;;;20.60;46.80;;;;;;5077946;28;20051;-44
2021/11/09 01:37:58;;;;;;;5.53;1.58;;;20.60;46.90;;;;;;5071658;28;20127;-40
2021/11/09 01:40:27;;;;;;;1.75;0.98;;;20.50;46.90;;;;;;5072269;28;20055;-41
2021/11/09 01:42:57;;;;;;;2.60;1.08;;;20.50;47.00;;;;;;5078039;28;20476;-40
2021/11/09 01:45:24;;;;;;;4.43;1.58;;;20.50;47.20;;;;;;5077942;28;20037;-40
2021/11/09 01:47:52;;;;;;;5.10;1.35;;;20.40;47.20;;;;;;5080416;28;20044;-40
2021/11/09 01:50:22;;;;;;;3.38;1.60;;;20.40;47.30;;;;;;5075846;28;20050;-40
2021/11/09 01:52:49;;;;;;;3.50;1.38;;;20.40;47.40;;;;;;5077074;28;20424;-40
2021/11/09 01:55:19;;;;;;;2.92;1.08;;;20.30;47.40;;;;;;5077067;28;20067;-40
2021/11/09 01:57:48;;;;;;;4.15;1.40;;;20.30;47.60;;;;;;5074557;28;20142;-41
2021/11/09 02:00:21;;;;;;;4.13;1.05;;;20.30;47.60;;;;;;5068999;28;20087;-42
2021/11/09 02:02:48;;;;;;;3.60;1.77;;;20.20;47.60;;;;;;5082145;28;20748;-40
2021/11/09 02:05:15;;;;;;;5.05;1.77;;;20.20;47.60;;;;;;5075873;28;20047;-41
2021/11/09 02:07:44;;;;;;;5.25;1.00;;;20.20;47.60;;;;;;5070859;28;20132;-41
2021/11/09 02:10:12;;;;;;;1.52;0.75;;;20.10;47.70;;;;;;5071561;28;20037;-41
2021/11/09 02:12:39;;;;;;;5.90;1.30;;;20.10;47.70;;;;;;5071082;28;20127;-40
2021/11/09 02:15:09;;;;;;;4.25;1.30;;;20.10;47.70;;;;;;5075399;28;20442;-41
2021/11/09 02:17:38;;;;;;;4.82;0.88;;;20.10;47.80;;;;;;5071787;28;20136;-41
2021/11/09 02:20:06;;;;;;;6.78;1.27;;;20.10;48.00;;;;;;5069600;28;20047;-40
2021/11/09 02:22:35;;;;;;;6.43;1.48;;;20.10;48.00;;;;;;5068373;28;20135;-41
2021/11/09 02:25:04;;;;;;;3.67;1.08;;;20.00;48.00;;;;;;5076479;28;20047;-41
2021/11/09 02:27:31;;;;;;;5.40;1.90;;;20.00;48.00;;;;;;5076701;28;20052;-40
2021/11/09 02:29:58;;;;;;;1.98;0.82;;;20.00;48.10;;;;;;5080390;28;20050;-41
2021/11/09 02:32:25;;;;;;;4.50;1.50;;;19.90;48.20;;;;;;5076668;28;20561;-40
2021/11/09 02:34:53;;;;;;;5.50;0.95;;;19.90;48.10;;;;;;5074534;28;20036;-40
2021/11/09 02:37:21;;;;;;;3.67;2.05;;;19.90;48.20;;;;;;5065203;28;20041;-41
2021/11/09 02:39:49;;;;;;;4.50;1.35;;;19.90;48.20;;;;;;5074068;28;20037;-40
2021/11/09 02:42:19;;;;;;;2.92;1.02;;;19.90;48.30;;;;;;5073296;28;20069;-45
2021/11/09 02:44:52;;;;;;;3.70;1.52;;;19.90;48.30;;;;;;5081707;28;20051;-41
2021/11/09 02:47:21;;;;;;;7.00;0.98;;;19.90;48.40;;;;;;5077069;28;20043;-40
2021/11/09 02:49:55;;;;;;;10.25;0.93;;;19.80;48.40;;;;;;5071520;28;20036;-40
2021/11/09 02:52:24;;;;;;;6.47;1.17;;;19.80;48.40;;;;;;5071202;28;20124;-40
2021/11/09 02:54:59;;;;;;;3.20;0.70;;;19.80;48.50;;;;;;5078053;28;20500;-40
2021/11/09 02:57:32;;;;;;;3.00;0.80;;;19.80;48.50;;;;;;5078359;28;20102;-41
2021/11/09 03:00:04;;;;;;;2.58;0.77;;;19.80;48.50;;;;;;5074348;28;20040;-40
2021/11/09 03:02:37;;;;;;;3.38;0.77;;;19.70;48.50;;;;;;5080682;28;20040;-41
2021/11/09 03:05:11;;;;;;;3.50;1.40;;;19.70;48.50;;;;;;5070431;28;20148;-40
2021/11/09 03:07:45;;;;;;;2.00;0.65;;;19.70;48.50;;;;;;5062264;28;20086;-40
2021/11/09 03:10:25;;;;;;;2.13;1.48;;;19.70;48.60;;;;;;5069855;28;20045;-41
2021/11/09 03:12:52;;;;;;;5.93;0.90;;;19.70;48.70;;;;;;5072451;28;20048;-40
2021/11/09 03:15:25;;;;;;;4.00;0.80;;;19.70;48.70;;;;;;5076333;28;20036;-41
2021/11/09 03:17:55;;;;;;;3.10;0.32;;;19.70;48.70;;;;;;5080678;28;20040;-40
2021/11/09 03:20:28;;;;;;;5.45;1.60;;;19.70;48.70;;;;;;5078471;28;20110;-40
2021/11/09 03:40:00;;;;;;;3.50;1.00;;;19.60;48.60;;;;;;5068877;28;20135;-41
2021/11/09 03:45:20;;;;;;;5.50;0.82;;;19.50;48.90;;;;;;5078660;28;20090;-42
2021/11/09 03:47:50;;;;;;;2.28;0.50;;;19.50;49.00;;;;;;5083386;28;20499;-41
2021/11/09 03:50:20;;;;;;;4.00;0.75;;;19.40;48.90;;;;;;5069778;28;20037;-40
2021/11/09 03:52:51;;;;;;;4.85;0.82;;;19.50;49.00;;;;;;5070008;28;20040;-40
2021/11/09 03:55:26;;;;;;;1.65;0.28;;;19.40;48.90;;;;;;5074716;28;20051;-41
2021/11/09 03:58:04;;;;;;;4.00;0.90;;;19.40;48.90;;;;;;5081738;28;20032;-40
2021/11/09 04:00:35;;;;;;;1.83;0.50;;;19.40;48.90;;;;;;5074027;28;20509;-40
2021/11/09 04:03:07;;;;;;;4.32;0.55;;;19.40;48.90;;;;;;5081375;28;20054;-40
2021/11/09 04:05:37;;;;;;;3.85;0.82;;;19.40;49.00;;;;;;5083289;28;20044;-40
2021/11/09 04:08:10;;;;;;;2.15;0.38;;;19.40;49.00;;;;;;5079980;28;20051;-41
2021/11/09 04:10:45;;;;;;;2.45;1.10;;;19.40;49.00;;;;;;5077874;28;20490;-41
2021/11/09 04:13:25;;;;;;;3.22;1.02;;;19.40;49.00;;;;;;5073313;28;20056;-40
2021/11/09 04:16:08;;;;;;;3.38;0.65;;;19.40;49.10;;;;;;5066751;28;20040;-40
2021/11/09 04:18:50;;;;;;;3.13;0.75;;;19.30;49.10;;;;;;5079065;28;20044;-40
2021/11/09 04:21:29;;;;;;;2.90;0.63;;;19.30;49.10;;;;;;5079206;28;20118;-40
2021/11/09 04:24:23;;;;;;;5.75;0.80;;;19.30;49.10;;;;;;5073634;28;20049;-41
2021/11/09 04:27:12;;;;;;;1.60;0.40;;;19.30;49.10;;;;;;5079673;28;20185;-40
2021/11/09 04:30:04;;;;;;;3.90;0.75;;;19.30;49.20;;;;;;5085258;28;20040;-41
2021/11/09 05:03:04;;;;;;;1.47;0.47;;;19.10;49.30;;;;;;4870667;29;20723;-40
2021/11/09 05:11:03;;;;;;;2.80;0.43;;;19.10;49.30;;;;;;4884298;28;20163;-40
2021/11/09 05:13:32;;;;;;;5.57;0.85;;;19.10;49.30;;;;;;4956950;28;20575;-40
2021/11/09 05:15:59;;;;;;;2.53;0.63;;;19.10;49.30;;;;;;5013608;28;20061;-40
2021/11/09 05:18:27;;;;;;;2.58;0.93;;;19.10;49.30;;;;;;5037673;28;20505;-40
2021/11/09 05:20:55;;;;;;;3.05;0.35;;;19.10;49.30;;;;;;5038895;28;20968;-40
2021/11/09 05:23:22;;;;;;;0.95;0.40;;;19.10;49.30;;;;;;5033144;28;20059;-40
2021/11/09 05:25:49;;;;;;;1.27;0.35;;;19.10;49.30;;;;;;5034015;28;20041;-40
2021/11/09 05:28:17;;;;;;;3.38;1.20;;;19.10;49.30;;;;;;5072928;28;20147;-41
2021/11/09 05:30:47;;;;;;;7.53;0.88;;;19.10;49.30;;;;;;5077247;28;20523;-41
2021/11/09 05:33:15;;;;;;;2.22;1.05;;;19.10;49.30;;;;;;5067477;28;20038;-41
2021/11/09 05:35:44;;;;;;;1.90;1.15;;;19.10;49.40;;;;;;5072476;28;20069;-41
2021/11/09 05:38:12;;;;;;;2.55;0.47;;;19.10;49.40;;;;;;5070905;28;20084;-40
2021/11/09 05:40:41;;;;;;;3.63;2.05;;;19.10;49.40;;;;;;5069175;28;20501;-41
2021/11/09 05:43:09;;;;;;;3.80;0.57;;;19.10;49.30;;;;;;5070051;28;20052;-40
2021/11/09 05:45:36;;;;;;;2.25;0.40;;;19.10;49.40;;;;;;5076828;28;20048;-41
2021/11/09 05:48:03;;;;;;;2.53;0.82;;;19.10;49.40;;;;;;5076848;28;20058;-40
2021/11/09 05:50:31;;;;;;;4.38;1.50;;;19.10;49.40;;;;;;5079054;28;20511;-40
2021/11/09 05:53:00;;;;;;;2.88;1.02;;;19.10;49.40;;;;;;5074615;28;20443;-41
2021/11/09 05:55:28;;;;;;;3.60;1.52;;;19.10;49.40;;;;;;5072805;28;20072;-41
2021/11/09 05:57:55;;;;;;;4.65;1.02;;;19.10;49.40;;;;;;5076320;28;20123;-40
2021/11/09 06:00:22;;;;;;;2.33;1.02;;;19.00;49.30;;;;;;5062281;28;20854;-41
2021/11/09 06:02:50;;;;;;;7.13;1.95;;;19.00;49.30;;;;;;5082547;28;20093;-40
2021/11/09 06:05:17;;;;;;;6.05;1.10;;;19.00;49.30;;;;;;5070966;28;20043;-41
2021/11/09 06:07:44;;;;;;;5.60;2.80;;;19.10;49.40;;;;;;5070374;28;20040;-40
2021/11/09 06:10:13;;;;;;;4.05;1.25;;;19.00;49.40;;;;;;5060599;28;20043;-40
2021/11/09 06:12:40;;;;;;;4.43;1.55;;;19.00;49.30;;;;;;5068180;28;20488;-40
2021/11/09 06:15:07;;;;;;;3.42;1.73;;;19.00;49.40;;;;;;5072478;28;20040;-41
2021/11/09 06:17:34;;;;;;;5.75;2.08;;;19.00;49.40;;;;;;5078335;28;20052;-41
2021/11/09 06:20:01;;;;;;;4.35;1.67;;;19.00;49.40;;;;;;5071720;28;20044;-40
2021/11/09 06:22:28;;;;;;;7.90;1.45;;;19.00;49.40;;;;;;5062026;28;20132;-40
2021/11/09 06:24:55;;;;;;;10.40;1.85;;;19.00;49.50;;;;;;5070703;28;20047;-40
2021/11/09 06:27:24;;;;;;;4.18;1.58;;;19.00;49.50;;;;;;5068962;28;20049;-41
2021/11/09 06:29:52;;;;;;;3.50;1.20;;;19.00;49.50;;;;;;5079328;28;20040;-40
2021/11/09 06:32:19;;;;;;;5.55;1.90;;;19.00;49.60;;;;;;5074750;28;20135;-41
2021/11/09 06:34:47;;;;;;;3.85;1.50;;;19.00;49.60;;;;;;5075799;28;20046;-41
2021/11/09 06:37:14;;;;;;;5.78;1.20;;;18.90;49.50;;;;;;5065746;28;20119;-40
2021/11/09 06:39:41;;;;;;;3.53;1.45;;;18.90;49.50;;;;;;5076549;28;20413;-40
2021/11/09 06:42:08;;;;;;;5.10;1.73;;;18.90;49.50;;;;;;5073105;28;20131;-41
2021/11/09 06:44:36;;;;;;;5.20;2.25;;;18.90;50.10;;;;;;5081776;28;20036;-40
2021/11/09 06:47:04;;;;;;;4.47;2.22;;;18.90;49.50;;;;;;5071333;28;20079;-40
2021/11/09 06:49:31;;;;;;;4.10;2.70;;;18.90;49.50;;;;;;5075893;28;20032;-41
2021/11/09 06:51:58;;;;;;;4.63;1.42;;;18.90;49.60;;;;;;5074734;28;20043;-40
2021/11/09 06:54:25;;;;;;;5.30;1.90;;;18.90;49.60;;;;;;5075598;28;20047;-41
2021/11/09 06:56:52;;;;;;;2.50;1.30;;;18.90;49.60;;;;;;5075874;28;20119;-40
2021/11/09 06:59:21;;;;;;;3.10;2.22;;;18.90;49.60;;;;;;5078342;28;20127;-41
2021/11/09 07:01:50;;;;;;;11.65;3.03;;;18.90;49.60;;;;;;5074906;28;20480;-40
2021/11/09 07:04:17;;;;;;;3.78;1.45;;;18.90;49.60;;;;;;5076627;28;20041;-40
2021/11/09 07:06:45;;;;;;;4.70;2.08;;;18.90;49.60;;;;;;5073258;28;20123;-40
2021/11/09 07:09:12;;;;;;;5.00;1.55;;;18.90;49.60;;;;;;5077355;28;20041;-40
2021/11/09 07:11:40;;;;;;;4.88;1.30;;;18.90;49.60;;;;;;5082067;28;20044;-43
2021/11/09 07:14:07;;;;;;;3.10;2.08;;;18.90;49.60;;;;;;5066102;28;20047;-40
2021/11/09 07:16:34;;;;;;;4.18;2.75;;;18.90;49.60;;;;;;5075169;28;20519;-40
2021/11/09 07:19:03;;;;;;;2.72;1.38;;;18.90;49.60;;;;;;5074343;28;20044;-41
2021/11/09 07:21:31;;;;;;;4.30;2.17;;;18.90;49.60;;;;;;5074340;28;20090;-40
2021/11/09 07:23:58;;;;;;;3.25;1.58;;;18.80;49.50;;;;;;5077835;28;20051;-41
2021/11/09 07:26:26;;;;;;;5.15;2.28;;;18.90;49.60;;;;;;5071747;28;20058;-40
2021/11/09 07:28:54;;;;;;;2.72;1.65;;;18.80;49.50;;;;;;5071361;28;20040;-40
2021/11/09 07:31:21;;;;;;;7.05;2.20;;;18.90;49.60;;;;;;5076170;28;20179;-40
2021/11/09 07:33:50;;;;;;;5.43;2.47;;;18.80;49.50;;;;;;5078618;28;20043;-41
2021/11/09 07:36:19;;;;;;;7.32;3.58;;;18.80;49.50;;;;;;5077609;28;20465;-40
2021/11/09 07:38:46;;;;;;;5.50;2.05;;;18.80;49.50;;;;;;5079546;28;20046;-40
2021/11/09 07:41:14;;;;;;;6.18;2.97;;;18.90;49.60;;;;;;5075160;28;20056;-40
2021/11/09 07:43:41;;;;;;;4.50;1.67;;;18.80;49.50;;;;;;5073242;28;20035;-41
2021/11/09 07:46:08;;;;;;;21.17;3.75;;;18.80;49.50;;;;;;5074221;28;20037;-40
2021/11/09 07:48:36;;;;;;;7.40;2.67;;;18.80;49.80;;;;;;5070647;28;20044;-40
2021/11/09 07:51:03;;;;;;;13.10;2.35;;;18.80;49.80;;;;;;5078120;28;20083;-40
2021/11/09 07:53:35;;;;;;;7.75;2.60;;;18.80;49.80;;;;;;5078077;28;20163;-40
2021/11/09 07:58:55;;;;;;;12.38;3.08;;;18.80;50.10;;;;;;5065267;28;20040;-40
2021/11/09 08:01:30;;;;;;;13.43;2.72;;;18.80;50.10;;;;;;5074066;28;20090;-40
2021/11/09 08:04:05;;;;;;;13.32;4.85;;;18.80;50.10;;;;;;5077940;28;20040;-40
2021/11/09 08:06:44;;;;;;;8.85;3.25;;;18.80;50.10;;;;;;5071396;28;20136;-40
2021/11/09 08:09:19;;;;;;;10.60;3.25;;;18.80;50.00;;;;;;5077535;28;20033;-40
2021/11/09 08:11:46;;;;;;;8.90;3.22;;;18.80;50.00;;;;;;5079091;28;20040;-41
2021/11/09 08:14:13;;;;;;;7.50;3.38;;;18.80;50.00;;;;;;5077609;28;20190;-40
2021/11/09 08:16:40;;;;;;;11.85;3.60;;;18.80;49.90;;;;;;5073393;28;20048;-40
2021/11/09 08:19:08;;;;;;;5.15;2.45;;;18.80;49.90;;;;;;5072365;28;20046;-40
2021/11/09 08:21:36;;;;;;;9.55;2.58;;;18.80;49.90;;;;;;5078237;28;20068;-40
2021/11/09 08:24:04;;;;;;;11.30;3.20;;;18.80;49.90;;;;;;5081287;28;20059;-40
2021/11/09 08:26:34;;;;;;;8.45;2.85;;;18.80;49.80;;;;;;5080362;28;20408;-41
2021/11/09 08:29:04;;;;;;;11.10;3.50;;;18.80;49.80;;;;;;5074289;28;20415;-40
2021/11/09 08:31:32;;;;;;;10.82;3.28;;;18.80;49.70;;;;;;5079503;28;20036;-41
2021/11/09 08:34:01;;;;;;;10.85;3.95;;;18.80;49.70;;;;;;5077898;28;20044;-40
2021/11/09 08:36:29;;;;;;;7.43;3.40;;;18.80;49.70;;;;;;5079747;28;20130;-41
2021/11/09 08:38:58;;;;;;;10.88;3.38;;;18.80;49.60;;;;;;5077816;28;20412;-40
2021/11/09 08:41:36;;;;;;;5.40;3.55;;;18.80;49.60;;;;;;5077410;28;20117;-39
2021/11/09 08:44:08;;;;;;;8.38;3.88;;;18.80;49.50;;;;;;5074267;28;20040;-39
2021/11/09 08:46:38;;;;;;;10.57;3.50;;;18.70;49.50;;;;;;5072637;28;20072;-40
2021/11/09 08:49:07;;;;;;;10.23;3.30;;;18.70;49.40;;;;;;5074276;28;20048;-40
2021/11/09 08:51:34;;;;;;;9.27;3.58;;;18.70;49.40;;;;;;5079038;28;20041;-40
2021/11/09 08:54:11;;;;;;;7.18;3.00;;;18.70;49.40;;;;;;5081647;28;20055;-40
2021/11/09 09:04:56;;;;;;;11.38;3.47;;;18.70;49.20;;;;;;5069258;28;20048;-40
2021/11/09 09:07:24;;;;;;;8.18;2.92;;;18.70;49.20;;;;;;5075146;28;20040;-40
2021/11/09 09:09:52;;;;;;;9.18;2.58;;;18.70;49.20;;;;;;5078000;28;20090;-39
2021/11/09 09:12:19;;;;;;;7.22;2.85;;;18.80;49.20;;;;;;5076477;28;20062;-39
2021/11/09 09:14:48;;;;;;;7.70;3.95;;;18.80;49.20;;;;;;5080966;28;20498;-39
2021/11/09 09:17:15;;;;;;;10.38;3.45;;;18.80;49.10;;;;;;5077537;28;20048;-39
2021/11/09 09:19:47;;;;;;;9.40;2.67;;;18.80;49.10;;;;;;5073519;28;20142;-39
2021/11/09 09:22:16;;;;;;;6.53;3.22;;;18.80;49.10;;;;;;5077470;28;20045;-42
2021/11/09 09:24:59;;;;;;;9.05;3.75;;;18.80;49.00;;;;;;5069666;28;20068;-41
2021/11/09 09:27:32;;;;;;;11.48;4.65;;;18.80;49.00;;;;;;5077344;28;20041;-41
2021/11/09 09:30:29;;;;;;;8.32;3.45;;;18.80;48.90;;;;;;5078263;28;20046;-39
2021/11/09 09:52:40;;;;;;;7.07;2.78;;;18.80;48.70;;;;;;5065856;28;20523;-39
2021/11/09 09:57:54;;;;;;;6.65;2.88;;;18.90;48.70;;;;;;5068517;28;20076;-39
2021/11/09 10:00:22;;;;;;;7.55;2.78;;;18.80;48.60;;;;;;5077559;28;20041;-40
2021/11/09 10:02:53;;;;;;;6.72;3.03;;;18.90;48.60;;;;;;5084171;28;20123;-39
2021/11/09 10:05:21;;;;;;;10.20;3.80;;;18.90;48.60;;;;;;5077880;28;20522;-39
2021/11/09 10:07:52;;;;;;;6.18;3.13;;;18.90;48.50;;;;;;5073417;28;20122;-39
2021/11/09 10:10:22;;;;;;;7.45;2.75;;;19.00;48.50;;;;;;5072779;28;20519;-39
2021/11/09 10:12:58;;;;;;;6.45;3.00;;;19.00;48.50;;;;;;5067463;28;20067;-39
2021/11/09 10:15:27;;;;;;;7.90;3.15;;;19.00;48.40;;;;;;5075747;28;20490;-39
2021/11/09 10:18:00;;;;;;;9.80;2.92;;;19.10;48.40;;;;;;5079986;28;20040;-39
2021/11/09 10:20:30;;;;;;;10.98;3.33;;;19.10;48.40;;;;;;5069279;28;20036;-39
2021/11/09 10:23:00;;;;;;;5.55;2.38;;;19.10;48.30;;;;;;5076266;28;20051;-39
2021/11/09 10:25:29;;;;;;;8.20;3.40;;;19.10;48.20;;;;;;5073880;28;20089;-39
2021/11/09 10:28:03;;;;;;;6.07;2.45;;;19.10;48.10;;;;;;5076211;28;20047;-39
2021/11/09 10:30:32;;;;;;;7.07;2.35;;;19.20;48.10;;;;;;5076858;28;20102;-39
2021/11/09 10:33:01;;;;;;;7.47;2.45;;;19.20;48.10;;;;;;5079051;28;20040;-39
2021/11/09 10:35:29;;;;;;;3.65;1.80;;;19.20;48.00;;;;;;5078842;28;20044;-39
2021/11/09 10:37:58;;;;;;;7.65;3.05;;;19.30;48.00;;;;;;5068168;28;20118;-39
2021/11/09 10:40:28;;;;;;;5.93;2.42;;;19.30;47.90;;;;;;5075609;28;20051;-39
2021/11/09 10:42:57;;;;;;;7.78;3.38;;;19.40;47.90;;;;;;5068011;28;20063;-39
2021/11/09 10:45:26;;;;;;;7.57;2.63;;;19.30;47.80;;;;;;5073567;28;20045;-39
2021/11/09 10:47:54;;;;;;;5.88;2.67;;;19.40;47.80;;;;;;5075506;28;20044;-39
2021/11/09 10:50:26;;;;;;;7.90;3.03;;;19.40;47.70;;;;;;5079033;28;20048;-40
2021/11/09 10:53:04;;;;;;;7.53;1.92;;;19.50;47.70;;;;;;5072916;28;20477;-39
2021/11/09 10:55:37;;;;;;;5.28;2.83;;;19.50;47.50;;;;;;5064239;28;20044;-39
2021/11/09 10:58:21;;;;;;;6.95;2.25;;;19.50;47.50;;;;;;5062201;28;20045;-39
2021/11/09 11:00:59;;;;;;;8.88;3.38;;;19.60;47.50;;;;;;5076095;28;20676;-39
2021/11/09 11:03:33;;;;;;;8.20;3.35;;;19.60;47.40;;;;;;5077310;28;20043;-39
2021/11/09 11:06:15;;;;;;;8.50;2.30;;;19.70;47.40;;;;;;5074167;28;20547;-39
2021/11/09 11:08:42;;;;;;;7.22;2.75;;;19.80;47.30;;;;;;5080625;28;20466;-39
2021/11/09 11:11:24;;;;;;;6.57;1.95;;;19.80;47.20;;;;;;5071929;28;20050;-39
2021/11/09 11:13:57;;;;;;;5.07;1.98;;;19.90;47.00;;;;;;5064772;28;20501;-39
2021/11/09 11:16:26;;;;;;;5.65;1.63;;;19.90;46.90;;;;;;5071418;28;20068;-39
2021/11/09 11:18:55;;;;;;;6.63;1.92;;;20.00;47.40;;;;;;5075342;28;20369;-39
2021/11/09 11:21:28;;;;;;;8.50;2.70;;;20.00;46.70;;;;;;5077414;28;20408;-39
2021/11/09 11:23:57;;;;;;;4.88;1.38;;;20.10;47.10;;;;;;5079672;28;20058;-39
2021/11/09 11:26:24;;;;;;;9.73;2.47;;;20.10;46.40;;;;;;5078631;28;20114;-39
2021/11/09 11:28:54;;;;;;;4.95;2.65;;;20.20;46.30;;;;;;5068789;28;20075;-40
2021/11/09 11:31:21;;;;;;;8.23;1.88;;;20.30;46.10;;;;;;5075069;28;20039;-40
2021/11/09 11:33:49;;;;;;;6.97;1.50;;;20.30;45.90;;;;;;5075657;28;20508;-40
2021/11/09 11:36:16;;;;;;;7.20;2.13;;;20.40;45.80;;;;;;5076465;28;20041;-39
2021/11/09 11:38:47;;;;;;;7.68;3.13;;;20.40;45.60;;;;;;5073436;28;20313;-41
2021/11/09 11:41:15;;;;;;;5.13;1.38;;;20.50;45.50;;;;;;5076899;28;20048;-41
2021/11/09 11:44:07;;;;;;;7.20;2.30;;;20.50;45.30;;;;;;5072686;28;20036;-40
2021/11/09 11:46:54;;;;;;;5.60;1.65;;;20.60;45.20;;;;;;5066996;28;20508;-40
2021/11/09 11:49:28;;;;;;;3.70;1.55;;;20.60;45.10;;;;;;5076798;28;20139;-40
2021/11/09 11:52:12;;;;;;;6.03;2.05;;;20.70;45.10;;;;;;5081310;28;20043;-41
2021/11/09 11:54:48;;;;;;;4.20;1.42;;;20.70;45.00;;;;;;5083648;28;20479;-40
2021/11/09 11:57:42;;;;;;;8.48;1.65;;;20.80;44.90;;;;;;5067931;28;20036;-40
2021/11/09 12:00:42;;;;;;;4.47;2.17;;;20.80;44.70;;;;;;5080301;28;20749;-41
2021/11/09 12:03:33;;;;;;;9.07;1.70;;;20.90;44.70;;;;;;5016501;28;20109;-40
2021/11/09 12:06:02;;;;;;;8.50;1.65;;;20.90;44.60;;;;;;5008198;28;20080;-40
2021/11/09 12:08:38;;;;;;;3.75;0.88;;;20.90;44.60;;;;;;5019803;28;20053;-40
2021/11/09 12:11:09;;;;;;;4.07;1.25;;;21.00;44.50;;;;;;5007992;28;20583;-40
2021/11/09 12:13:56;;;;;;;6.07;1.95;;;21.00;44.40;;;;;;5010037;28;20065;-40
2021/11/09 12:16:47;;;;;;;4.78;1.88;;;21.10;44.30;;;;;;5013718;28;20058;-40
2021/11/09 12:19:57;;;;;;;4.03;0.85;;;21.10;44.20;;;;;;5015148;28;20050;-40
2021/11/09 12:22:37;;;;;;;3.38;1.77;;;21.20;44.20;;;;;;5012628;28;20041;-40
2021/11/09 12:25:06;;;;;;;7.22;1.55;;;21.20;44.20;;;;;;5014932;28;20635;-40
2021/11/09 12:28:06;;;;;;;3.80;1.15;;;21.20;44.10;;;;;;5014616;28;20038;-40
2021/11/09 12:30:57;;;;;;;4.82;1.67;;;21.20;43.90;;;;;;4998158;28;20434;-40
2021/11/09 12:33:26;;;;;;;5.13;1.00;;;21.30;43.90;;;;;;5004539;28;20157;-40
2021/11/09 12:36:17;;;;;;;3.97;1.38;;;21.30;43.90;;;;;;5020172;28;20186;-40
2021/11/09 12:38:47;;;;;;;3.60;1.15;;;21.40;43.80;;;;;;5079458;28;20094;-41
2021/11/09 12:41:15;;;;;;;5.70;1.55;;;21.40;43.80;;;;;;5078622;28;20052;-40
2021/11/09 12:43:47;;;;;;;3.63;0.65;;;21.40;43.70;;;;;;5074942;28;20105;-41
2021/11/09 12:46:23;;;;;;;4.28;0.52;;;21.50;43.70;;;;;;5079020;28;20072;-40
2021/11/09 12:48:59;;;;;;;3.70;0.85;;;21.50;43.50;;;;;;5074913;28;20444;-40
2021/11/09 12:51:29;;;;;;;3.33;0.73;;;21.50;43.50;;;;;;5078569;28;20037;-40
2021/11/09 12:54:00;;;;;;;4.68;0.82;;;21.60;43.50;;;;;;5075987;28;20407;-40
2021/11/09 12:56:33;;;;;;;2.28;1.00;;;21.60;43.40;;;;;;5078397;28;20044;-40
2021/11/09 12:59:07;;;;;;;3.17;0.77;;;21.60;43.30;;;;;;5073900;28;20063;-40
2021/11/09 13:04:21;;;;;;;4.20;0.80;;;21.70;43.30;;;;;;5063604;28;20850;-40
2021/11/09 13:06:58;;;;;;;3.67;0.52;;;21.70;43.20;;;;;;5075770;28;20063;-41
2021/11/09 13:09:30;;;;;;;5.78;1.75;;;21.70;43.10;;;;;;5076619;28;20582;-40
2021/11/09 13:12:00;;;;;;;3.80;0.63;;;21.80;43.20;;;;;;5076813;28;20051;-40
2021/11/09 13:14:38;;;;;;;1.88;0.55;;;21.80;43.00;;;;;;5080505;28;20123;-40
2021/11/09 13:17:18;;;;;;;4.85;1.02;;;21.80;42.90;;;;;;5073159;28;20130;-40
2021/11/09 13:19:46;;;;;;;2.55;1.33;;;21.90;42.90;;;;;;5073987;28;20051;-40
2021/11/09 13:22:16;;;;;;;3.17;0.40;;;21.90;42.90;;;;;;5077185;28;20039;-40
2021/11/09 13:24:55;;;;;;;1.02;0.52;;;21.90;42.80;;;;;;5078086;28;20036;-40
2021/11/09 13:27:35;;;;;;;3.45;0.75;;;22.00;42.80;;;;;;5074699;28;20121;-40
2021/11/09 13:30:13;;;;;;;3.30;0.73;;;22.00;42.70;;;;;;5077111;28;20044;-40
2021/11/09 13:32:42;;;;;;;3.05;0.80;;;22.00;42.70;;;;;;5083141;28;20131;-40
2021/11/09 13:35:30;;;;;;;2.70;0.50;;;22.00;42.60;;;;;;5074259;28;20040;-40
2021/11/09 13:38:08;;;;;;;3.65;1.40;;;22.10;42.60;;;;;;5068753;28;20056;-40
2021/11/09 13:40:36;;;;;;;7.03;1.25;;;22.10;42.60;;;;;;5075152;28;20063;-40
2021/11/09 13:43:07;;;;;;;3.75;0.98;;;22.10;42.50;;;;;;5077034;28;20046;-40
2021/11/09 13:45:37;;;;;;;1.20;0.50;;;22.20;42.50;;;;;;5081222;28;20808;-40
2021/11/09 13:48:12;;;;;;;5.25;0.70;;;22.20;42.50;;;;;;5070060;28;20051;-40
2021/11/09 13:50:39;;;;;;;0.73;0.70;;;22.20;42.40;;;;;;5080611;28;20047;-40
2021/11/09 13:53:07;;;;;;;3.17;0.90;;;22.20;42.30;;;;;;5069904;28;20043;-40
2021/11/09 13:55:37;;;;;;;2.90;0.60;;;22.20;42.30;;;;;;5064125;28;20048;-40
2021/11/09 13:58:04;;;;;;;2.53;0.70;;;22.30;42.20;;;;;;5072885;28;20068;-40
2021/11/09 14:00:37;;;;;;;3.10;0.43;;;22.30;42.20;;;;;;5065034;28;20033;-40
2021/11/09 14:03:13;;;;;;;1.60;0.60;;;22.30;42.10;;;;;;5074539;28;20046;-40
2021/11/09 14:06:13;;;;;;;2.40;0.60;;;22.30;42.00;;;;;;5082904;28;20583;-40
2021/11/09 14:11:51;;;;;;;;;;;22.40;41.90;;;;;;5060437;28;20056;-40
2021/11/09 14:16:59;;;;;;;2.58;0.28;;;22.40;42.00;;;;;;5067902;28;20135;-40
2021/11/09 14:19:32;;;;;;;3.10;0.50;;;22.40;41.90;;;;;;5071043;28;20520;-40
2021/11/09 14:22:07;;;;;;;1.08;0.40;;;22.50;41.80;;;;;;5063430;28;20055;-40
2021/11/09 14:24:35;;;;;;;1.73;0.35;;;22.50;41.80;;;;;;5077449;28;20957;-40
2021/11/09 14:27:05;;;;;;;4.80;0.70;;;22.60;41.80;;;;;;5079007;28;20435;-40
2021/11/09 14:29:36;;;;;;;5.38;1.13;;;22.60;41.70;;;;;;5075425;28;20143;-40
2021/11/09 14:32:06;;;;;;;2.78;0.82;;;22.60;41.60;;;;;;5073811;28;20122;-40
2021/11/09 14:34:36;;;;;;;3.60;0.30;;;22.60;41.50;;;;;;5073010;28;20114;-40
2021/11/09 14:37:11;;;;;;;2.88;0.73;;;22.60;41.50;;;;;;5076682;28;20051;-41
2021/11/09 14:39:42;;;;;;;4.80;0.85;;;22.60;41.40;;;;;;5072913;28;20067;-40
2021/11/09 14:42:16;;;;;;;3.13;0.73;;;22.60;41.40;;;;;;5072488;28;20497;-40
2021/11/09 14:45:09;;;;;;;1.95;0.73;;;22.60;41.40;;;;;;5080626;28;20067;-41